sensor_id;sensor_type;location;lat;lon;timestamp;pressure;altitude;pressure_sealevel;temperature;humidity
57050;BME280;42935;50.966;16.992;2023-05-21T00:01:57;101976.92;;;10.89;100.00
57050;BME280;42935;50.966;16.992;2023-05-21T00:05:18;101975.34;;;10.90;100.00
57050;BME280;42935;50.966;16.992;2023-05-21T00:08:36;101977.42;;;11.09;100.00
57050;BME280;42935;50.966;16.992;2023-05-21T00:12:00;101977.77;;;11.31;100.00
57050;BME280;42935;50.966;16.992;2023-05-21T00:15:18;101972.85;;;11.59;100.00
57050;BME280;42935;50.966;16.992;2023-05-21T00:18:39;101968.30;;;11.74;100.00
57050;BME280;42935;50.966;16.992;2023-05-21T00:22:04;101955.13;;;11.89;100.00
57050;BME280;42935;50.966;16.992;2023-05-21T00:25:30;101956.07;;;12.20;100.00
57050;BME280;42935;50.966;16.992;2023-05-21T00:28:56;101946.12;;;12.33;100.00
57050;BME280;42935;50.966;16.992;2023-05-21T00:32:18;101950.14;;;12.51;100.00
57050;BME280;42935;50.966;16.992;2023-05-21T00:35:33;101950.74;;;12.53;100.00
57050;BME280;42935;50.966;16.992;2023-05-21T00:38:55;101955.95;;;12.61;100.00
57050;BME280;42935;50.966;16.992;2023-05-21T00:42:20;101957.20;;;12.63;100.00
57050;BME280;42935;50.966;16.992;2023-05-21T00:45:44;101952.15;;;12.59;100.00
57050;BME280;42935;50.966;16.992;2023-05-21T00:49:04;101963.06;;;12.73;100.00
57050;BME280;42935;50.966;16.992;2023-05-21T00:52:27;101955.52;;;12.71;100.00
57050;BME280;42935;50.966;16.992;2023-05-21T00:55:49;101965.27;;;12.75;100.00
57050;BME280;42935;50.966;16.992;2023-05-21T00:59:06;101958.48;;;12.76;100.00
57050;BME280;42935;50.966;16.992;2023-05-21T01:02:33;101951.67;;;12.75;100.00
57050;BME280;42935;50.966;16.992;2023-05-21T01:05:57;101957.45;;;12.68;100.00
57050;BME280;42935;50.966;16.992;2023-05-21T01:09:14;101946.02;;;12.54;100.00
57050;BME280;42935;50.966;16.992;2023-05-21T01:12:39;101951.69;;;12.55;100.00
57050;BME280;42935;50.966;16.992;2023-05-21T01:15:57;101951.85;;;12.58;100.00
57050;BME280;42935;50.966;16.992;2023-05-21T01:19:21;101940.18;;;12.52;100.00
57050;BME280;42935;50.966;16.992;2023-05-21T01:22:55;101926.89;;;12.37;100.00
57050;BME280;42935;50.966;16.992;2023-05-21T01:26:12;101945.16;;;12.41;100.00
57050;BME280;42935;50.966;16.992;2023-05-21T01:29:35;101944.87;;;12.33;100.00
57050;BME280;42935;50.966;16.992;2023-05-21T01:36:33;101941.36;;;12.31;100.00
57050;BME280;42935;50.966;16.992;2023-05-21T01:40:09;101931.52;;;12.26;100.00
57050;BME280;42935;50.966;16.992;2023-05-21T01:43:40;101936.18;;;12.27;100.00
57050;BME280;42935;50.966;16.992;2023-05-21T01:47:02;101935.99;;;12.19;100.00
57050;BME280;42935;50.966;16.992;2023-05-21T01:50:26;101927.38;;;12.06;100.00
57050;BME280;42935;50.966;16.992;2023-05-21T01:53:43;101931.16;;;12.05;100.00
57050;BME280;42935;50.966;16.992;2023-05-21T01:57:00;101937.95;;;11.83;100.00
57050;BME280;42935;50.966;16.992;2023-05-21T02:00:23;101937.58;;;11.76;100.00
57050;BME280;42935;50.966;16.992;2023-05-21T02:04:20;101941.33;;;11.68;100.00
57050;BME280;42935;50.966;16.992;2023-05-21T02:07:41;101937.55;;;11.69;100.00
57050;BME280;42935;50.966;16.992;2023-05-21T02:11:03;101934.08;;;11.63;100.00
57050;BME280;42935;50.966;16.992;2023-05-21T02:14:24;101934.93;;;11.57;100.00
57050;BME280;42935;50.966;16.992;2023-05-21T02:17:45;101943.13;;;11.53;100.00
57050;BME280;42935;50.966;16.992;2023-05-21T02:21:04;101946.59;;;11.57;100.00
57050;BME280;42935;50.966;16.992;2023-05-21T02:24:25;101942.27;;;11.59;100.00
57050;BME280;42935;50.966;16.992;2023-05-21T02:27:45;101932.83;;;11.55;100.00
57050;BME280;42935;50.966;16.992;2023-05-21T02:31:06;101942.34;;;11.62;100.00
57050;BME280;42935;50.966;16.992;2023-05-21T02:34:24;101939.46;;;11.63;100.00
57050;BME280;42935;50.966;16.992;2023-05-21T02:37:54;101919.92;;;11.55;100.00
57050;BME280;42935;50.966;16.992;2023-05-21T02:41:18;101932.78;;;11.61;100.00
57050;BME280;42935;50.966;16.992;2023-05-21T02:44:41;101928.02;;;11.59;100.00
57050;BME280;42935;50.966;16.992;2023-05-21T02:47:58;101924.30;;;11.55;100.00
57050;BME280;42935;50.966;16.992;2023-05-21T02:51:19;101914.07;;;11.55;100.00
57050;BME280;42935;50.966;16.992;2023-05-21T02:54:41;101910.76;;;11.54;100.00
57050;BME280;42935;50.966;16.992;2023-05-21T02:57:58;101908.84;;;11.52;100.00
57050;BME280;42935;50.966;16.992;2023-05-21T03:01:19;101916.40;;;11.52;100.00
57050;BME280;42935;50.966;16.992;2023-05-21T03:04:44;101916.13;;;11.47;100.00
57050;BME280;42935;50.966;16.992;2023-05-21T03:08:02;101913.06;;;11.40;100.00
57050;BME280;42935;50.966;16.992;2023-05-21T03:11:28;101912.53;;;11.35;100.00
57050;BME280;42935;50.966;16.992;2023-05-21T03:15:20;101916.42;;;11.36;100.00
57050;BME280;42935;50.966;16.992;2023-05-21T03:18:38;101911.45;;;11.27;100.00
57050;BME280;42935;50.966;16.992;2023-05-21T03:22:00;101916.67;;;11.39;100.00
57050;BME280;42935;50.966;16.992;2023-05-21T03:25:21;101916.09;;;11.31;100.00
57050;BME280;42935;50.966;16.992;2023-05-21T03:28:43;101911.67;;;11.23;100.00
57050;BME280;42935;50.966;16.992;2023-05-21T03:32:02;101916.94;;;11.08;100.00
57050;BME280;42935;50.966;16.992;2023-05-21T03:35:29;101911.01;;;11.19;100.00
57050;BME280;42935;50.966;16.992;2023-05-21T03:38:51;101913.43;;;11.39;100.00
57050;BME280;42935;50.966;16.992;2023-05-21T03:42:11;101901.81;;;11.35;100.00
57050;BME280;42935;50.966;16.992;2023-05-21T03:45:36;101910.95;;;11.43;100.00
57050;BME280;42935;50.966;16.992;2023-05-21T03:48:53;101909.56;;;11.50;100.00
57050;BME280;42935;50.966;16.992;2023-05-21T03:52:21;101917.08;;;11.59;100.00
57050;BME280;42935;50.966;16.992;2023-05-21T03:55:42;101919.90;;;11.54;100.00
57050;BME280;42935;50.966;16.992;2023-05-21T03:59:03;101918.47;;;11.70;100.00
57050;BME280;42935;50.966;16.992;2023-05-21T04:02:56;101899.62;;;11.75;100.00
57050;BME280;42935;50.966;16.992;2023-05-21T04:06:12;101905.72;;;11.87;100.00
57050;BME280;42935;50.966;16.992;2023-05-21T04:09:31;101909.80;;;12.02;100.00
57050;BME280;42935;50.966;16.992;2023-05-21T04:12:49;101903.54;;;12.07;100.00
57050;BME280;42935;50.966;16.992;2023-05-21T04:16:11;101906.51;;;12.23;100.00
57050;BME280;42935;50.966;16.992;2023-05-21T04:19:41;101908.21;;;12.21;100.00
57050;BME280;42935;50.966;16.992;2023-05-21T04:23:02;101906.39;;;12.09;100.00
57050;BME280;42935;50.966;16.992;2023-05-21T04:26:19;101909.55;;;12.06;100.00
57050;BME280;42935;50.966;16.992;2023-05-21T04:29:37;101901.89;;;12.18;100.00
57050;BME280;42935;50.966;16.992;2023-05-21T04:32:54;101911.97;;;12.38;100.00
57050;BME280;42935;50.966;16.992;2023-05-21T04:36:18;101907.11;;;12.43;100.00
57050;BME280;42935;50.966;16.992;2023-05-21T04:39:39;101905.35;;;12.57;100.00
57050;BME280;42935;50.966;16.992;2023-05-21T04:42:56;101904.02;;;12.61;100.00
57050;BME280;42935;50.966;16.992;2023-05-21T04:46:21;101903.41;;;12.70;100.00
57050;BME280;42935;50.966;16.992;2023-05-21T04:49:41;101905.30;;;12.90;100.00
57050;BME280;42935;50.966;16.992;2023-05-21T04:53:03;101907.41;;;12.90;100.00
57050;BME280;42935;50.966;16.992;2023-05-21T04:56:20;101913.20;;;13.09;100.00
57050;BME280;42935;50.966;16.992;2023-05-21T04:59:38;101915.24;;;13.21;100.00
57050;BME280;42935;50.966;16.992;2023-05-21T05:02:59;101910.87;;;13.35;100.00
57050;BME280;42935;50.966;16.992;2023-05-21T05:06:20;101903.60;;;13.34;100.00
57050;BME280;42935;50.966;16.992;2023-05-21T05:09:39;101915.34;;;13.59;100.00
57050;BME280;42935;50.966;16.992;2023-05-21T05:12:57;101913.08;;;13.72;100.00
57050;BME280;42935;50.966;16.992;2023-05-21T05:16:14;101909.80;;;13.84;100.00
57050;BME280;42935;50.966;16.992;2023-05-21T05:19:43;101914.59;;;14.03;100.00
57050;BME280;42935;50.966;16.992;2023-05-21T05:23:08;101917.43;;;14.28;100.00
57050;BME280;42935;50.966;16.992;2023-05-21T05:26:26;101906.02;;;14.36;100.00
57050;BME280;42935;50.966;16.992;2023-05-21T05:29:49;101905.70;;;14.48;100.00
57050;BME280;42935;50.966;16.992;2023-05-21T05:33:08;101902.38;;;14.60;100.00
57050;BME280;42935;50.966;16.992;2023-05-21T05:36:27;101890.37;;;14.49;100.00
57050;BME280;42935;50.966;16.992;2023-05-21T05:39:51;101899.13;;;14.69;100.00
57050;BME280;42935;50.966;16.992;2023-05-21T05:43:08;101901.52;;;14.84;100.00
57050;BME280;42935;50.966;16.992;2023-05-21T05:46:30;101905.18;;;14.90;100.00
57050;BME280;42935;50.966;16.992;2023-05-21T05:49:50;101902.95;;;14.99;100.00
57050;BME280;42935;50.966;16.992;2023-05-21T05:53:07;101891.53;;;15.13;100.00
57050;BME280;42935;50.966;16.992;2023-05-21T05:56:27;101897.09;;;15.37;100.00
57050;BME280;42935;50.966;16.992;2023-05-21T05:59:51;101891.73;;;15.56;100.00
57050;BME280;42935;50.966;16.992;2023-05-21T06:03:10;101877.81;;;15.64;100.00
57050;BME280;42935;50.966;16.992;2023-05-21T06:06:27;101886.66;;;15.85;100.00
57050;BME280;42935;50.966;16.992;2023-05-21T06:09:45;101881.58;;;15.90;100.00
57050;BME280;42935;50.966;16.992;2023-05-21T06:13:04;101881.93;;;16.04;100.00
57050;BME280;42935;50.966;16.992;2023-05-21T06:16:30;101882.44;;;16.22;100.00
57050;BME280;42935;50.966;16.992;2023-05-21T06:19:55;101885.62;;;16.45;100.00
57050;BME280;42935;50.966;16.992;2023-05-21T06:23:14;101888.44;;;16.82;100.00
57050;BME280;42935;50.966;16.992;2023-05-21T06:27:05;101887.57;;;16.92;100.00
57050;BME280;42935;50.966;16.992;2023-05-21T06:30:23;101882.91;;;17.03;100.00
57050;BME280;42935;50.966;16.992;2023-05-21T06:33:44;101877.12;;;17.25;100.00
57050;BME280;42935;50.966;16.992;2023-05-21T06:37:07;101876.27;;;17.23;100.00
57050;BME280;42935;50.966;16.992;2023-05-21T06:40:28;101874.79;;;17.33;100.00
57050;BME280;42935;50.966;16.992;2023-05-21T06:43:46;101871.46;;;17.45;100.00
57050;BME280;42935;50.966;16.992;2023-05-21T06:46:59;101869.91;;;17.58;100.00
57050;BME280;42935;50.966;16.992;2023-05-21T06:50:20;101869.77;;;17.48;100.00
57050;BME280;42935;50.966;16.992;2023-05-21T06:53:38;101866.89;;;17.84;100.00
57050;BME280;42935;50.966;16.992;2023-05-21T06:57:02;101857.67;;;17.80;100.00
57050;BME280;42935;50.966;16.992;2023-05-21T07:00:27;101865.35;;;17.81;100.00
57050;BME280;42935;50.966;16.992;2023-05-21T07:03:54;101858.93;;;18.01;100.00
57050;BME280;42935;50.966;16.992;2023-05-21T07:07:13;101858.90;;;18.18;100.00
57050;BME280;42935;50.966;16.992;2023-05-21T07:10:29;101848.45;;;18.36;100.00
57050;BME280;42935;50.966;16.992;2023-05-21T07:13:43;101851.26;;;18.32;100.00
57050;BME280;42935;50.966;16.992;2023-05-21T07:17:00;101860.35;;;18.33;100.00
57050;BME280;42935;50.966;16.992;2023-05-21T07:20:16;101862.58;;;18.51;100.00
57050;BME280;42935;50.966;16.992;2023-05-21T07:23:33;101856.74;;;18.87;100.00
57050;BME280;42935;50.966;16.992;2023-05-21T07:26:46;101852.43;;;18.93;100.00
57050;BME280;42935;50.966;16.992;2023-05-21T07:30:09;101851.74;;;18.95;100.00
57050;BME280;42935;50.966;16.992;2023-05-21T07:33:26;101852.65;;;19.21;100.00
57050;BME280;42935;50.966;16.992;2023-05-21T07:36:44;101846.80;;;19.53;100.00
57050;BME280;42935;50.966;16.992;2023-05-21T07:40:03;101853.39;;;19.48;100.00
57050;BME280;42935;50.966;16.992;2023-05-21T07:43:21;101852.91;;;19.50;100.00
57050;BME280;42935;50.966;16.992;2023-05-21T07:46:44;101854.20;;;19.88;100.00
57050;BME280;42935;50.966;16.992;2023-05-21T07:50:01;101847.16;;;20.10;100.00
57050;BME280;42935;50.966;16.992;2023-05-21T07:53:49;101842.48;;;20.14;100.00
57050;BME280;42935;50.966;16.992;2023-05-21T07:57:06;101843.98;;;19.84;100.00
57050;BME280;42935;50.966;16.992;2023-05-21T08:00:23;101828.80;;;20.24;100.00
57050;BME280;42935;50.966;16.992;2023-05-21T08:03:42;101835.88;;;20.29;100.00
57050;BME280;42935;50.966;16.992;2023-05-21T08:06:59;101839.66;;;20.63;100.00
57050;BME280;42935;50.966;16.992;2023-05-21T08:10:18;101839.77;;;20.67;97.01
57050;BME280;42935;50.966;16.992;2023-05-21T08:13:35;101843.07;;;20.35;99.85
57050;BME280;42935;50.966;16.992;2023-05-21T08:16:54;101842.26;;;20.76;100.00
57050;BME280;42935;50.966;16.992;2023-05-21T08:20:16;101840.96;;;20.71;99.85
57050;BME280;42935;50.966;16.992;2023-05-21T08:23:35;101837.80;;;20.58;97.90
57050;BME280;42935;50.966;16.992;2023-05-21T08:26:49;101839.05;;;20.47;95.37
57050;BME280;42935;50.966;16.992;2023-05-21T08:30:03;101841.24;;;20.54;94.90
57050;BME280;42935;50.966;16.992;2023-05-21T08:33:25;101833.16;;;20.63;96.11
57050;BME280;42935;50.966;16.992;2023-05-21T08:36:37;101833.73;;;20.82;89.44
57050;BME280;42935;50.966;16.992;2023-05-21T08:40:33;101832.63;;;21.11;92.77
57050;BME280;42935;50.966;16.992;2023-05-21T08:43:56;101828.73;;;21.55;88.97
57050;BME280;42935;50.966;16.992;2023-05-21T08:47:16;101829.06;;;21.49;91.64
57050;BME280;42935;50.966;16.992;2023-05-21T08:50:39;101826.01;;;21.76;86.20
57050;BME280;42935;50.966;16.992;2023-05-21T08:54:31;101825.67;;;21.82;85.60
57050;BME280;42935;50.966;16.992;2023-05-21T08:57:45;101817.04;;;21.60;82.06
57050;BME280;42935;50.966;16.992;2023-05-21T09:01:03;101818.32;;;21.74;82.15
57050;BME280;42935;50.966;16.992;2023-05-21T09:04:20;101820.07;;;21.67;81.94
57050;BME280;42935;50.966;16.992;2023-05-21T09:11:02;101826.09;;;22.21;79.88
57050;BME280;42935;50.966;16.992;2023-05-21T09:14:20;101829.73;;;22.37;79.43
57050;BME280;42935;50.966;16.992;2023-05-21T09:17:40;101819.98;;;22.38;75.42
57050;BME280;42935;50.966;16.992;2023-05-21T09:20:53;101814.95;;;22.67;78.37
57050;BME280;42935;50.966;16.992;2023-05-21T09:24:10;101810.54;;;22.79;76.69
57050;BME280;42935;50.966;16.992;2023-05-21T09:27:24;101811.80;;;22.82;74.40
57050;BME280;42935;50.966;16.992;2023-05-21T09:30:47;101804.41;;;22.59;71.18
57050;BME280;42935;50.966;16.992;2023-05-21T09:34:02;101803.35;;;23.03;70.07
57050;BME280;42935;50.966;16.992;2023-05-21T09:37:20;101796.54;;;23.30;74.11
57050;BME280;42935;50.966;16.992;2023-05-21T09:40:43;101804.25;;;23.71;71.54
57050;BME280;42935;50.966;16.992;2023-05-21T09:44:02;101804.01;;;23.63;73.44
57050;BME280;42935;50.966;16.992;2023-05-21T09:47:23;101799.95;;;23.61;70.25
57050;BME280;42935;50.966;16.992;2023-05-21T09:50:41;101798.33;;;23.85;70.00
57050;BME280;42935;50.966;16.992;2023-05-21T09:54:00;101793.37;;;24.30;69.83
57050;BME280;42935;50.966;16.992;2023-05-21T09:57:48;101789.41;;;24.45;70.35
57050;BME280;42935;50.966;16.992;2023-05-21T10:01:06;101785.42;;;24.09;68.32
57050;BME280;42935;50.966;16.992;2023-05-21T10:05:00;101784.12;;;24.39;69.09
57050;BME280;42935;50.966;16.992;2023-05-21T10:08:17;101782.43;;;24.89;67.97
57050;BME280;42935;50.966;16.992;2023-05-21T10:11:34;101777.92;;;25.20;66.79
57050;BME280;42935;50.966;16.992;2023-05-21T10:14:54;101767.76;;;25.49;66.94
57050;BME280;42935;50.966;16.992;2023-05-21T10:18:18;101769.39;;;25.15;64.70
57050;BME280;42935;50.966;16.992;2023-05-21T10:21:35;101764.07;;;24.65;61.88
57050;BME280;42935;50.966;16.992;2023-05-21T10:24:53;101756.55;;;24.78;64.04
57050;BME280;42935;50.966;16.992;2023-05-21T10:28:50;101753.65;;;25.16;63.65
57050;BME280;42935;50.966;16.992;2023-05-21T10:32:14;101761.73;;;25.15;62.49
57050;BME280;42935;50.966;16.992;2023-05-21T10:35:30;101757.95;;;25.23;58.96
57050;BME280;42935;50.966;16.992;2023-05-21T10:38:48;101748.95;;;25.33;65.41
57050;BME280;42935;50.966;16.992;2023-05-21T10:45:44;101740.06;;;25.75;62.83
57050;BME280;42935;50.966;16.992;2023-05-21T10:49:12;101739.60;;;25.58;59.36
57050;BME280;42935;50.966;16.992;2023-05-21T11:02:45;101731.94;;;25.42;59.35
57050;BME280;42935;50.966;16.992;2023-05-21T11:06:04;101732.44;;;25.59;58.53
57050;BME280;42935;50.966;16.992;2023-05-21T11:09:22;101724.46;;;25.49;57.93
57050;BME280;42935;50.966;16.992;2023-05-21T11:16:05;101724.48;;;26.22;58.21
57050;BME280;42935;50.966;16.992;2023-05-21T11:19:19;101724.85;;;26.32;55.29
57050;BME280;42935;50.966;16.992;2023-05-21T11:22:37;101725.98;;;25.57;58.15
57050;BME280;42935;50.966;16.992;2023-05-21T11:29:18;101705.69;;;26.07;60.17
57050;BME280;42935;50.966;16.992;2023-05-21T11:32:38;101701.31;;;26.39;55.48
57050;BME280;42935;50.966;16.992;2023-05-21T11:35:58;101704.23;;;26.57;58.60
57050;BME280;42935;50.966;16.992;2023-05-21T11:39:17;101699.13;;;25.84;55.72
57050;BME280;42935;50.966;16.992;2023-05-21T11:42:38;101708.86;;;26.14;56.18
57050;BME280;42935;50.966;16.992;2023-05-21T11:45:59;101699.20;;;26.50;55.97
57050;BME280;42935;50.966;16.992;2023-05-21T11:49:48;101689.70;;;26.02;56.33
57050;BME280;42935;50.966;16.992;2023-05-21T11:53:04;101681.63;;;26.67;57.46
57050;BME280;42935;50.966;16.992;2023-05-21T11:56:27;101690.19;;;26.75;58.25
57050;BME280;42935;50.966;16.992;2023-05-21T11:59:49;101690.42;;;25.87;56.20
57050;BME280;42935;50.966;16.992;2023-05-21T12:03:12;101692.75;;;25.58;56.14
57050;BME280;42935;50.966;16.992;2023-05-21T12:07:03;101684.68;;;26.33;54.79
57050;BME280;42935;50.966;16.992;2023-05-21T12:10:22;101683.60;;;26.54;56.73
57050;BME280;42935;50.966;16.992;2023-05-21T12:13:34;101673.28;;;26.48;58.13
57050;BME280;42935;50.966;16.992;2023-05-21T12:16:51;101681.87;;;25.50;53.71
57050;BME280;42935;50.966;16.992;2023-05-21T12:20:05;101684.41;;;26.10;54.31
57050;BME280;42935;50.966;16.992;2023-05-21T12:23:23;101679.91;;;26.48;53.72
57050;BME280;42935;50.966;16.992;2023-05-21T12:26:41;101682.34;;;26.13;55.26
57050;BME280;42935;50.966;16.992;2023-05-21T12:30:00;101674.27;;;25.89;54.33
57050;BME280;42935;50.966;16.992;2023-05-21T12:33:31;101666.36;;;26.28;52.38
57050;BME280;42935;50.966;16.992;2023-05-21T12:36:48;101673.14;;;26.38;52.86
57050;BME280;42935;50.966;16.992;2023-05-21T12:40:06;101674.45;;;26.51;50.31
57050;BME280;42935;50.966;16.992;2023-05-21T12:43:24;101669.55;;;25.82;51.23
57050;BME280;42935;50.966;16.992;2023-05-21T12:46:40;101674.07;;;25.91;53.50
57050;BME280;42935;50.966;16.992;2023-05-21T12:50:07;101674.70;;;26.47;52.65
57050;BME280;42935;50.966;16.992;2023-05-21T12:53:21;101656.20;;;26.56;49.54
57050;BME280;42935;50.966;16.992;2023-05-21T12:56:43;101670.38;;;27.41;48.84
57050;BME280;42935;50.966;16.992;2023-05-21T13:00:31;101671.13;;;27.46;49.25
57050;BME280;42935;50.966;16.992;2023-05-21T13:03:49;101666.00;;;27.62;47.51
57050;BME280;42935;50.966;16.992;2023-05-21T13:07:07;101660.89;;;27.83;47.24
57050;BME280;42935;50.966;16.992;2023-05-21T13:10:22;101658.88;;;26.94;50.61
57050;BME280;42935;50.966;16.992;2023-05-21T13:14:07;101665.01;;;27.35;48.56
57050;BME280;42935;50.966;16.992;2023-05-21T13:17:20;101663.29;;;28.11;47.70
57050;BME280;42935;50.966;16.992;2023-05-21T13:20:38;101664.41;;;27.86;46.15
57050;BME280;42935;50.966;16.992;2023-05-21T13:23:53;101662.51;;;27.63;46.57
57050;BME280;42935;50.966;16.992;2023-05-21T13:27:10;101653.41;;;27.60;47.11
57050;BME280;42935;50.966;16.992;2023-05-21T13:30:58;101652.16;;;28.67;45.36
57050;BME280;42935;50.966;16.992;2023-05-21T13:34:15;101650.31;;;28.82;45.11
57050;BME280;42935;50.966;16.992;2023-05-21T13:37:29;101657.63;;;27.40;48.37
57050;BME280;42935;50.966;16.992;2023-05-21T13:40:41;101649.14;;;27.48;49.33
57050;BME280;42935;50.966;16.992;2023-05-21T13:43:59;101643.04;;;28.80;46.40
57050;BME280;42935;50.966;16.992;2023-05-21T13:47:14;101650.56;;;27.39;49.08
57050;BME280;42935;50.966;16.992;2023-05-21T13:50:28;101651.84;;;27.19;48.09
57050;BME280;42935;50.966;16.992;2023-05-21T13:53:46;101657.23;;;27.11;48.74
57050;BME280;42935;50.966;16.992;2023-05-21T13:57:34;101652.66;;;26.49;49.15
57050;BME280;42935;50.966;16.992;2023-05-21T14:00:48;101658.09;;;26.14;48.97
57050;BME280;42935;50.966;16.992;2023-05-21T14:04:04;101646.38;;;26.77;48.55
57050;BME280;42935;50.966;16.992;2023-05-21T14:07:23;101642.30;;;26.39;49.25
57050;BME280;42935;50.966;16.992;2023-05-21T14:10:44;101650.98;;;26.21;51.31
57050;BME280;42935;50.966;16.992;2023-05-21T14:14:02;101639.59;;;27.09;49.25
57050;BME280;42935;50.966;16.992;2023-05-21T14:17:19;101637.07;;;27.64;46.46
57050;BME280;42935;50.966;16.992;2023-05-21T14:20:39;101634.98;;;28.32;44.72
57050;BME280;42935;50.966;16.992;2023-05-21T14:23:59;101635.94;;;28.68;45.02
57050;BME280;42935;50.966;16.992;2023-05-21T14:27:11;101630.37;;;27.93;45.71
57050;BME280;42935;50.966;16.992;2023-05-21T14:30:29;101635.05;;;28.46;44.06
57050;BME280;42935;50.966;16.992;2023-05-21T14:33:42;101635.94;;;28.08;43.90
57050;BME280;42935;50.966;16.992;2023-05-21T14:36:58;101628.88;;;28.12;44.55
57050;BME280;42935;50.966;16.992;2023-05-21T14:40:19;101629.22;;;28.21;44.41
57050;BME280;42935;50.966;16.992;2023-05-21T14:43:37;101630.70;;;27.99;45.02
57050;BME280;42935;50.966;16.992;2023-05-21T14:46:58;101630.37;;;28.63;44.97
57050;BME280;42935;50.966;16.992;2023-05-21T14:50:45;101627.24;;;28.12;45.68
57050;BME280;42935;50.966;16.992;2023-05-21T14:54:28;101620.70;;;28.61;44.59
57050;BME280;42935;50.966;16.992;2023-05-21T14:57:49;101606.66;;;28.29;43.37
57050;BME280;42935;50.966;16.992;2023-05-21T15:01:06;101616.48;;;28.20;44.35
57050;BME280;42935;50.966;16.992;2023-05-21T15:04:23;101613.35;;;27.46;44.80
57050;BME280;42935;50.966;16.992;2023-05-21T15:07:39;101615.95;;;26.64;45.53
57050;BME280;42935;50.966;16.992;2023-05-21T15:10:56;101623.73;;;26.16;46.89
57050;BME280;42935;50.966;16.992;2023-05-21T15:14:48;101618.41;;;26.77;46.59
57050;BME280;42935;50.966;16.992;2023-05-21T15:18:05;101623.57;;;26.31;46.03
57050;BME280;42935;50.966;16.992;2023-05-21T15:21:23;101609.59;;;26.92;45.81
57050;BME280;42935;50.966;16.992;2023-05-21T15:24:38;101621.97;;;27.16;45.93
57050;BME280;42935;50.966;16.992;2023-05-21T15:27:55;101620.66;;;26.68;46.66
57050;BME280;42935;50.966;16.992;2023-05-21T15:31:11;101621.67;;;26.96;46.06
57050;BME280;42935;50.966;16.992;2023-05-21T15:34:24;101617.23;;;27.57;46.32
57050;BME280;42935;50.966;16.992;2023-05-21T15:37:39;101619.25;;;27.25;45.65
57050;BME280;42935;50.966;16.992;2023-05-21T15:41:04;101606.65;;;27.14;45.71
57050;BME280;42935;50.966;16.992;2023-05-21T15:44:17;101614.81;;;27.01;44.47
57050;BME280;42935;50.966;16.992;2023-05-21T15:48:04;101609.29;;;27.37;44.47
57050;BME280;42935;50.966;16.992;2023-05-21T15:51:22;101616.87;;;27.33;44.42
57050;BME280;42935;50.966;16.992;2023-05-21T15:54:43;101612.38;;;27.14;43.84
57050;BME280;42935;50.966;16.992;2023-05-21T15:58:04;101611.21;;;27.70;44.05
57050;BME280;42935;50.966;16.992;2023-05-21T16:01:18;101606.74;;;27.10;44.60
57050;BME280;42935;50.966;16.992;2023-05-21T16:04:35;101603.32;;;26.32;45.76
57050;BME280;42935;50.966;16.992;2023-05-21T16:08:00;101591.52;;;26.94;44.28
57050;BME280;42935;50.966;16.992;2023-05-21T16:11:22;101593.41;;;27.20;44.02
57050;BME280;42935;50.966;16.992;2023-05-21T16:14:37;101600.32;;;26.82;45.05
57050;BME280;42935;50.966;16.992;2023-05-21T16:17:54;101597.95;;;26.98;44.38
57050;BME280;42935;50.966;16.992;2023-05-21T16:21:11;101592.67;;;26.96;44.24
57050;BME280;42935;50.966;16.992;2023-05-21T16:24:29;101602.02;;;26.71;45.02
57050;BME280;42935;50.966;16.992;2023-05-21T16:27:47;101599.02;;;27.36;44.91
57050;BME280;42935;50.966;16.992;2023-05-21T16:31:30;101599.39;;;27.05;45.80
57050;BME280;42935;50.966;16.992;2023-05-21T16:34:49;101591.92;;;27.31;44.67
57050;BME280;42935;50.966;16.992;2023-05-21T16:38:07;101600.45;;;26.92;44.59
57050;BME280;42935;50.966;16.992;2023-05-21T16:41:55;101602.10;;;26.34;44.79
57050;BME280;42935;50.966;16.992;2023-05-21T16:45:13;101602.94;;;26.01;45.13
57050;BME280;42935;50.966;16.992;2023-05-21T16:48:36;101606.12;;;26.17;45.06
57050;BME280;42935;50.966;16.992;2023-05-21T16:52:01;101609.75;;;25.95;45.06
57050;BME280;42935;50.966;16.992;2023-05-21T16:55:19;101607.90;;;25.75;45.10
57050;BME280;42935;50.966;16.992;2023-05-21T16:58:36;101611.73;;;26.09;45.95
57050;BME280;42935;50.966;16.992;2023-05-21T17:01:51;101616.23;;;26.50;45.47
57050;BME280;42935;50.966;16.992;2023-05-21T17:05:10;101617.40;;;26.39;46.41
57050;BME280;42935;50.966;16.992;2023-05-21T17:08:25;101612.45;;;25.88;46.18
57050;BME280;42935;50.966;16.992;2023-05-21T17:11:40;101622.15;;;25.37;46.93
57050;BME280;42935;50.966;16.992;2023-05-21T17:15:03;101620.69;;;25.22;47.43
57050;BME280;42935;50.966;16.992;2023-05-21T17:18:17;101625.54;;;24.97;47.64
57050;BME280;42935;50.966;16.992;2023-05-21T17:21:35;101620.47;;;24.10;49.00
57050;BME280;42935;50.966;16.992;2023-05-21T17:24:52;101623.09;;;23.95;49.68
57050;BME280;42935;50.966;16.992;2023-05-21T17:28:05;101623.92;;;23.93;49.77
57050;BME280;42935;50.966;16.992;2023-05-21T17:31:20;101623.43;;;23.81;50.48
57050;BME280;42935;50.966;16.992;2023-05-21T17:34:37;101625.79;;;23.98;50.00
57050;BME280;42935;50.966;16.992;2023-05-21T17:37:54;101631.55;;;23.54;50.29
57050;BME280;42935;50.966;16.992;2023-05-21T17:41:16;101639.86;;;23.52;51.18